sensor_id;sensor_type;location;lat;lon;timestamp;P1;durP1;ratioP1;P2;durP2;ratioP2
45039;SDS011;30778;53.574;7.770;2024-03-02T00:01:10;12.77;;;7.60;;
45039;SDS011;30778;53.574;7.770;2024-03-02T00:03:39;16.73;;;8.27;;
45039;SDS011;30778;53.574;7.770;2024-03-02T00:06:06;12.82;;;7.07;;
45039;SDS011;30778;53.574;7.770;2024-03-02T00:08:32;14.40;;;7.70;;
45039;SDS011;30778;53.574;7.770;2024-03-02T00:10:58;12.45;;;6.20;;
45039;SDS011;30778;53.574;7.770;2024-03-02T00:13:25;12.30;;;6.88;;
45039;SDS011;30778;53.574;7.770;2024-03-02T00:15:54;14.25;;;6.70;;
45039;SDS011;30778;53.574;7.770;2024-03-02T00:18:23;10.45;;;5.70;;
45039;SDS011;30778;53.574;7.770;2024-03-02T00:20:54;10.82;;;5.65;;
45039;SDS011;30778;53.574;7.770;2024-03-02T00:23:24;13.43;;;5.97;;
45039;SDS011;30778;53.574;7.770;2024-03-02T00:25:53;16.13;;;6.38;;
45039;SDS011;30778;53.574;7.770;2024-03-02T00:28:29;8.65;;;5.93;;
45039;SDS011;30778;53.574;7.770;2024-03-02T00:31:06;10.80;;;5.90;;
45039;SDS011;30778;53.574;7.770;2024-03-02T00:33:45;9.05;;;4.72;;
45039;SDS011;30778;53.574;7.770;2024-03-02T00:36:12;9.35;;;5.28;;
45039;SDS011;30778;53.574;7.770;2024-03-02T00:38:46;9.43;;;5.05;;
45039;SDS011;30778;53.574;7.770;2024-03-02T00:41:15;9.48;;;5.82;;
45039;SDS011;30778;53.574;7.770;2024-03-02T00:43:48;11.77;;;5.78;;
45039;SDS011;30778;53.574;7.770;2024-03-02T00:46:34;11.75;;;6.03;;
45039;SDS011;30778;53.574;7.770;2024-03-02T00:49:03;9.93;;;5.13;;
45039;SDS011;30778;53.574;7.770;2024-03-02T00:51:33;9.05;;;3.85;;
45039;SDS011;30778;53.574;7.770;2024-03-02T00:54:02;12.60;;;6.60;;
45039;SDS011;30778;53.574;7.770;2024-03-02T00:56:32;8.15;;;4.85;;
45039;SDS011;30778;53.574;7.770;2024-03-02T00:58:58;12.55;;;6.45;;
45039;SDS011;30778;53.574;7.770;2024-03-02T01:01:23;8.50;;;5.55;;
45039;SDS011;30778;53.574;7.770;2024-03-02T01:03:49;9.27;;;6.45;;
45039;SDS011;30778;53.574;7.770;2024-03-02T01:06:15;11.75;;;5.82;;
45039;SDS011;30778;53.574;7.770;2024-03-02T01:08:41;14.00;;;6.75;;
45039;SDS011;30778;53.574;7.770;2024-03-02T01:11:07;12.48;;;6.53;;
45039;SDS011;30778;53.574;7.770;2024-03-02T01:13:33;10.95;;;5.95;;
45039;SDS011;30778;53.574;7.770;2024-03-02T01:16:01;17.65;;;6.35;;
45039;SDS011;30778;53.574;7.770;2024-03-02T01:18:27;10.23;;;5.53;;
45039;SDS011;30778;53.574;7.770;2024-03-02T01:20:53;10.38;;;5.68;;
45039;SDS011;30778;53.574;7.770;2024-03-02T01:23:24;9.40;;;4.68;;
45039;SDS011;30778;53.574;7.770;2024-03-02T01:25:52;12.93;;;5.78;;
45039;SDS011;30778;53.574;7.770;2024-03-02T01:28:18;10.45;;;5.90;;
45039;SDS011;30778;53.574;7.770;2024-03-02T01:30:45;13.18;;;6.85;;
45039;SDS011;30778;53.574;7.770;2024-03-02T01:33:11;11.13;;;6.05;;
45039;SDS011;30778;53.574;7.770;2024-03-02T01:35:36;13.20;;;5.78;;
45039;SDS011;30778;53.574;7.770;2024-03-02T01:38:05;9.55;;;6.00;;
45039;SDS011;30778;53.574;7.770;2024-03-02T01:40:33;12.40;;;6.68;;
45039;SDS011;30778;53.574;7.770;2024-03-02T01:42:59;9.23;;;5.38;;
45039;SDS011;30778;53.574;7.770;2024-03-02T01:45:25;12.88;;;6.10;;
45039;SDS011;30778;53.574;7.770;2024-03-02T01:47:51;8.00;;;5.38;;
45039;SDS011;30778;53.574;7.770;2024-03-02T01:50:24;12.50;;;5.90;;
45039;SDS011;30778;53.574;7.770;2024-03-02T01:52:51;9.18;;;5.63;;
45039;SDS011;30778;53.574;7.770;2024-03-02T01:55:17;10.55;;;6.00;;
45039;SDS011;30778;53.574;7.770;2024-03-02T01:57:42;11.68;;;5.55;;
45039;SDS011;30778;53.574;7.770;2024-03-02T02:00:10;10.38;;;5.15;;
45039;SDS011;30778;53.574;7.770;2024-03-02T02:02:39;9.90;;;5.47;;
45039;SDS011;30778;53.574;7.770;2024-03-02T02:05:04;9.43;;;5.13;;
45039;SDS011;30778;53.574;7.770;2024-03-02T02:07:30;10.75;;;5.57;;
45039;SDS011;30778;53.574;7.770;2024-03-02T02:09:57;11.15;;;5.43;;
45039;SDS011;30778;53.574;7.770;2024-03-02T02:12:22;9.95;;;4.65;;
45039;SDS011;30778;53.574;7.770;2024-03-02T02:14:49;11.50;;;5.68;;
45039;SDS011;30778;53.574;7.770;2024-03-02T02:17:15;9.48;;;5.47;;
45039;SDS011;30778;53.574;7.770;2024-03-02T02:19:41;8.75;;;5.10;;
45039;SDS011;30778;53.574;7.770;2024-03-02T02:22:08;10.15;;;5.60;;
45039;SDS011;30778;53.574;7.770;2024-03-02T02:24:34;7.35;;;4.43;;
45039;SDS011;30778;53.574;7.770;2024-03-02T02:27:01;11.48;;;5.97;;
45039;SDS011;30778;53.574;7.770;2024-03-02T02:29:27;9.05;;;5.50;;
45039;SDS011;30778;53.574;7.770;2024-03-02T02:31:52;10.25;;;4.93;;
45039;SDS011;30778;53.574;7.770;2024-03-02T02:34:18;9.00;;;4.88;;
45039;SDS011;30778;53.574;7.770;2024-03-02T02:36:44;11.05;;;5.13;;
45039;SDS011;30778;53.574;7.770;2024-03-02T02:39:16;11.82;;;5.97;;
45039;SDS011;30778;53.574;7.770;2024-03-02T02:41:45;13.68;;;5.40;;
45039;SDS011;30778;53.574;7.770;2024-03-02T02:44:10;9.23;;;5.43;;
45039;SDS011;30778;53.574;7.770;2024-03-02T02:46:38;11.10;;;5.10;;
45039;SDS011;30778;53.574;7.770;2024-03-02T02:49:06;10.68;;;5.47;;
45039;SDS011;30778;53.574;7.770;2024-03-02T02:51:32;12.85;;;6.65;;
45039;SDS011;30778;53.574;7.770;2024-03-02T02:53:58;10.07;;;5.45;;
45039;SDS011;30778;53.574;7.770;2024-03-02T02:56:23;15.95;;;5.28;;
45039;SDS011;30778;53.574;7.770;2024-03-02T02:58:49;13.13;;;5.78;;
45039;SDS011;30778;53.574;7.770;2024-03-02T03:01:15;10.45;;;5.18;;
45039;SDS011;30778;53.574;7.770;2024-03-02T03:03:43;13.13;;;5.85;;
45039;SDS011;30778;53.574;7.770;2024-03-02T03:06:11;9.15;;;4.65;;
45039;SDS011;30778;53.574;7.770;2024-03-02T03:08:37;10.32;;;5.50;;
45039;SDS011;30778;53.574;7.770;2024-03-02T03:11:03;12.90;;;5.63;;
45039;SDS011;30778;53.574;7.770;2024-03-02T03:13:30;9.45;;;5.63;;
45039;SDS011;30778;53.574;7.770;2024-03-02T03:15:57;9.25;;;5.10;;
45039;SDS011;30778;53.574;7.770;2024-03-02T03:18:22;8.98;;;5.90;;
45039;SDS011;30778;53.574;7.770;2024-03-02T03:20:48;12.65;;;6.35;;
45039;SDS011;30778;53.574;7.770;2024-03-02T03:23:13;11.68;;;6.00;;
45039;SDS011;30778;53.574;7.770;2024-03-02T03:25:42;10.75;;;5.05;;
45039;SDS011;30778;53.574;7.770;2024-03-02T03:28:08;11.90;;;5.32;;
45039;SDS011;30778;53.574;7.770;2024-03-02T03:30:37;10.18;;;5.80;;
45039;SDS011;30778;53.574;7.770;2024-03-02T03:33:04;11.95;;;6.60;;
45039;SDS011;30778;53.574;7.770;2024-03-02T03:35:32;13.10;;;6.38;;
45039;SDS011;30778;53.574;7.770;2024-03-02T03:37:58;12.57;;;6.78;;
45039;SDS011;30778;53.574;7.770;2024-03-02T03:40:23;9.45;;;5.63;;
45039;SDS011;30778;53.574;7.770;2024-03-02T03:42:49;17.48;;;6.15;;
45039;SDS011;30778;53.574;7.770;2024-03-02T03:45:15;12.07;;;5.53;;
45039;SDS011;30778;53.574;7.770;2024-03-02T03:47:41;13.25;;;5.85;;
45039;SDS011;30778;53.574;7.770;2024-03-02T03:50:07;8.73;;;5.28;;
45039;SDS011;30778;53.574;7.770;2024-03-02T03:52:33;11.77;;;5.97;;
45039;SDS011;30778;53.574;7.770;2024-03-02T03:54:58;10.25;;;5.88;;
45039;SDS011;30778;53.574;7.770;2024-03-02T03:57:25;12.65;;;6.93;;
45039;SDS011;30778;53.574;7.770;2024-03-02T03:59:50;13.15;;;6.00;;
45039;SDS011;30778;53.574;7.770;2024-03-02T04:02:16;8.77;;;5.70;;
45039;SDS011;30778;53.574;7.770;2024-03-02T04:04:41;13.77;;;7.07;;
45039;SDS011;30778;53.574;7.770;2024-03-02T04:07:07;11.00;;;6.03;;
45039;SDS011;30778;53.574;7.770;2024-03-02T04:09:32;11.73;;;6.22;;
45039;SDS011;30778;53.574;7.770;2024-03-02T04:11:58;10.68;;;5.45;;
45039;SDS011;30778;53.574;7.770;2024-03-02T04:14:23;9.30;;;5.80;;
45039;SDS011;30778;53.574;7.770;2024-03-02T04:16:49;9.45;;;5.93;;
45039;SDS011;30778;53.574;7.770;2024-03-02T04:19:16;9.88;;;5.47;;
45039;SDS011;30778;53.574;7.770;2024-03-02T04:21:42;11.65;;;6.30;;
45039;SDS011;30778;53.574;7.770;2024-03-02T04:24:07;15.95;;;6.70;;
45039;SDS011;30778;53.574;7.770;2024-03-02T04:26:33;14.90;;;5.82;;
45039;SDS011;30778;53.574;7.770;2024-03-02T04:28:58;11.88;;;5.93;;
45039;SDS011;30778;53.574;7.770;2024-03-02T04:31:24;13.48;;;6.30;;
45039;SDS011;30778;53.574;7.770;2024-03-02T04:33:49;10.90;;;5.75;;
45039;SDS011;30778;53.574;7.770;2024-03-02T04:36:15;13.48;;;6.28;;
45039;SDS011;30778;53.574;7.770;2024-03-02T04:38:40;11.38;;;5.95;;
45039;SDS011;30778;53.574;7.770;2024-03-02T04:41:06;11.68;;;5.68;;
45039;SDS011;30778;53.574;7.770;2024-03-02T04:43:32;13.32;;;6.47;;
45039;SDS011;30778;53.574;7.770;2024-03-02T04:45:58;11.98;;;6.68;;
45039;SDS011;30778;53.574;7.770;2024-03-02T04:48:24;11.93;;;6.53;;
45039;SDS011;30778;53.574;7.770;2024-03-02T04:50:50;9.98;;;6.60;;
45039;SDS011;30778;53.574;7.770;2024-03-02T04:53:15;13.48;;;7.35;;
45039;SDS011;30778;53.574;7.770;2024-03-02T04:55:41;18.08;;;7.72;;
45039;SDS011;30778;53.574;7.770;2024-03-02T04:58:07;17.75;;;7.30;;
45039;SDS011;30778;53.574;7.770;2024-03-02T05:00:32;14.88;;;7.03;;
45039;SDS011;30778;53.574;7.770;2024-03-02T05:02:58;11.65;;;6.65;;
45039;SDS011;30778;53.574;7.770;2024-03-02T05:05:24;14.18;;;7.10;;
45039;SDS011;30778;53.574;7.770;2024-03-02T05:07:49;14.48;;;7.80;;
45039;SDS011;30778;53.574;7.770;2024-03-02T05:10:14;15.90;;;7.22;;
45039;SDS011;30778;53.574;7.770;2024-03-02T05:12:40;12.23;;;6.60;;
45039;SDS011;30778;53.574;7.770;2024-03-02T05:15:06;17.55;;;8.05;;
45039;SDS011;30778;53.574;7.770;2024-03-02T05:17:38;11.95;;;7.38;;
45039;SDS011;30778;53.574;7.770;2024-03-02T05:20:05;15.07;;;7.30;;
45039;SDS011;30778;53.574;7.770;2024-03-02T05:22:33;14.93;;;7.70;;
45039;SDS011;30778;53.574;7.770;2024-03-02T05:24:59;14.50;;;7.43;;
45039;SDS011;30778;53.574;7.770;2024-03-02T05:27:26;13.32;;;6.03;;
45039;SDS011;30778;53.574;7.770;2024-03-02T05:29:54;14.60;;;7.60;;
45039;SDS011;30778;53.574;7.770;2024-03-02T05:32:19;16.50;;;8.05;;
45039;SDS011;30778;53.574;7.770;2024-03-02T05:34:45;20.42;;;7.40;;
45039;SDS011;30778;53.574;7.770;2024-03-02T05:37:11;18.05;;;8.00;;
45039;SDS011;30778;53.574;7.770;2024-03-02T05:39:36;16.02;;;8.05;;
45039;SDS011;30778;53.574;7.770;2024-03-02T05:42:02;16.38;;;7.38;;
45039;SDS011;30778;53.574;7.770;2024-03-02T05:44:31;13.52;;;7.65;;
45039;SDS011;30778;53.574;7.770;2024-03-02T05:46:57;11.52;;;6.53;;
45039;SDS011;30778;53.574;7.770;2024-03-02T05:49:22;15.50;;;7.32;;
45039;SDS011;30778;53.574;7.770;2024-03-02T05:51:48;15.60;;;7.82;;
45039;SDS011;30778;53.574;7.770;2024-03-02T05:54:13;13.77;;;7.13;;
45039;SDS011;30778;53.574;7.770;2024-03-02T05:56:39;14.15;;;7.25;;
45039;SDS011;30778;53.574;7.770;2024-03-02T05:59:04;10.85;;;6.40;;
45039;SDS011;30778;53.574;7.770;2024-03-02T06:01:39;15.88;;;8.00;;
45039;SDS011;30778;53.574;7.770;2024-03-02T06:04:08;10.80;;;6.68;;
45039;SDS011;30778;53.574;7.770;2024-03-02T06:06:33;14.73;;;7.30;;
45039;SDS011;30778;53.574;7.770;2024-03-02T06:09:00;14.68;;;7.72;;
45039;SDS011;30778;53.574;7.770;2024-03-02T06:11:27;13.40;;;6.97;;
45039;SDS011;30778;53.574;7.770;2024-03-02T06:13:53;13.27;;;6.88;;
45039;SDS011;30778;53.574;7.770;2024-03-02T06:16:18;14.02;;;7.35;;
45039;SDS011;30778;53.574;7.770;2024-03-02T06:18:44;12.77;;;7.30;;
45039;SDS011;30778;53.574;7.770;2024-03-02T06:21:10;12.80;;;6.88;;
45039;SDS011;30778;53.574;7.770;2024-03-02T06:23:43;17.10;;;7.32;;
45039;SDS011;30778;53.574;7.770;2024-03-02T06:26:09;16.17;;;7.70;;
45039;SDS011;30778;53.574;7.770;2024-03-02T06:28:34;11.70;;;6.35;;
45039;SDS011;30778;53.574;7.770;2024-03-02T06:31:01;13.45;;;7.35;;
45039;SDS011;30778;53.574;7.770;2024-03-02T06:33:27;15.00;;;7.85;;
45039;SDS011;30778;53.574;7.770;2024-03-02T06:35:55;14.32;;;7.22;;
45039;SDS011;30778;53.574;7.770;2024-03-02T06:38:21;12.93;;;6.90;;
45039;SDS011;30778;53.574;7.770;2024-03-02T06:40:47;13.18;;;7.00;;
45039;SDS011;30778;53.574;7.770;2024-03-02T06:43:12;12.60;;;6.32;;
45039;SDS011;30778;53.574;7.770;2024-03-02T06:45:38;12.23;;;6.72;;
45039;SDS011;30778;53.574;7.770;2024-03-02T06:48:04;16.77;;;8.07;;
45039;SDS011;30778;53.574;7.770;2024-03-02T06:50:30;12.30;;;6.53;;
45039;SDS011;30778;53.574;7.770;2024-03-02T06:52:56;12.93;;;6.95;;
45039;SDS011;30778;53.574;7.770;2024-03-02T06:55:22;12.30;;;6.68;;
45039;SDS011;30778;53.574;7.770;2024-03-02T06:57:52;16.63;;;7.57;;
45039;SDS011;30778;53.574;7.770;2024-03-02T07:00:18;10.35;;;5.22;;
45039;SDS011;30778;53.574;7.770;2024-03-02T07:02:45;11.18;;;5.88;;
45039;SDS011;30778;53.574;7.770;2024-03-02T07:05:11;13.70;;;6.35;;
45039;SDS011;30778;53.574;7.770;2024-03-02T07:07:36;13.82;;;6.85;;
45039;SDS011;30778;53.574;7.770;2024-03-02T07:10:03;12.25;;;7.53;;
45039;SDS011;30778;53.574;7.770;2024-03-02T07:12:30;11.98;;;6.22;;
45039;SDS011;30778;53.574;7.770;2024-03-02T07:14:57;12.15;;;6.00;;
45039;SDS011;30778;53.574;7.770;2024-03-02T07:17:28;13.68;;;5.47;;
45039;SDS011;30778;53.574;7.770;2024-03-02T07:19:54;10.27;;;5.32;;
45039;SDS011;30778;53.574;7.770;2024-03-02T07:22:20;11.70;;;5.60;;
45039;SDS011;30778;53.574;7.770;2024-03-02T07:24:46;9.82;;;4.85;;
45039;SDS011;30778;53.574;7.770;2024-03-02T07:27:12;10.20;;;5.88;;
45039;SDS011;30778;53.574;7.770;2024-03-02T07:29:39;9.07;;;5.13;;
45039;SDS011;30778;53.574;7.770;2024-03-02T07:32:05;9.38;;;5.20;;
45039;SDS011;30778;53.574;7.770;2024-03-02T07:34:32;9.60;;;5.88;;
45039;SDS011;30778;53.574;7.770;2024-03-02T07:36:58;6.30;;;4.50;;
45039;SDS011;30778;53.574;7.770;2024-03-02T07:39:23;6.70;;;5.13;;
45039;SDS011;30778;53.574;7.770;2024-03-02T07:41:49;9.27;;;4.50;;
45039;SDS011;30778;53.574;7.770;2024-03-02T07:44:15;6.70;;;4.38;;
45039;SDS011;30778;53.574;7.770;2024-03-02T07:46:41;6.65;;;4.88;;
45039;SDS011;30778;53.574;7.770;2024-03-02T07:49:08;6.60;;;4.45;;
45039;SDS011;30778;53.574;7.770;2024-03-02T07:51:35;7.72;;;4.43;;
45039;SDS011;30778;53.574;7.770;2024-03-02T07:54:01;6.47;;;4.75;;
45039;SDS011;30778;53.574;7.770;2024-03-02T07:56:27;7.85;;;4.75;;
45039;SDS011;30778;53.574;7.770;2024-03-02T07:58:53;7.10;;;4.78;;
45039;SDS011;30778;53.574;7.770;2024-03-02T08:01:18;6.93;;;4.35;;
45039;SDS011;30778;53.574;7.770;2024-03-02T08:03:44;6.45;;;4.40;;
45039;SDS011;30778;53.574;7.770;2024-03-02T08:06:13;7.30;;;4.30;;
45039;SDS011;30778;53.574;7.770;2024-03-02T08:08:42;9.88;;;4.35;;
45039;SDS011;30778;53.574;7.770;2024-03-02T08:11:08;5.18;;;4.00;;
45039;SDS011;30778;53.574;7.770;2024-03-02T08:13:34;4.78;;;3.45;;
45039;SDS011;30778;53.574;7.770;2024-03-02T08:15:59;5.63;;;3.53;;
45039;SDS011;30778;53.574;7.770;2024-03-02T08:18:25;6.68;;;3.97;;
45039;SDS011;30778;53.574;7.770;2024-03-02T08:20:50;8.13;;;4.00;;
45039;SDS011;30778;53.574;7.770;2024-03-02T08:23:17;6.65;;;3.53;;
45039;SDS011;30778;53.574;7.770;2024-03-02T08:25:42;7.78;;;4.15;;
45039;SDS011;30778;53.574;7.770;2024-03-02T08:28:10;5.00;;;3.08;;
45039;SDS011;30778;53.574;7.770;2024-03-02T08:30:36;5.72;;;4.25;;
45039;SDS011;30778;53.574;7.770;2024-03-02T08:33:01;4.75;;;3.78;;
45039;SDS011;30778;53.574;7.770;2024-03-02T08:35:27;4.22;;;3.30;;
45039;SDS011;30778;53.574;7.770;2024-03-02T08:37:53;4.85;;;3.80;;
45039;SDS011;30778;53.574;7.770;2024-03-02T08:40:18;7.63;;;3.90;;
45039;SDS011;30778;53.574;7.770;2024-03-02T08:42:44;5.90;;;4.05;;
45039;SDS011;30778;53.574;7.770;2024-03-02T08:45:10;6.60;;;4.07;;
45039;SDS011;30778;53.574;7.770;2024-03-02T08:47:36;4.50;;;2.95;;
45039;SDS011;30778;53.574;7.770;2024-03-02T08:50:02;7.35;;;4.32;;
45039;SDS011;30778;53.574;7.770;2024-03-02T08:52:29;7.28;;;3.95;;
45039;SDS011;30778;53.574;7.770;2024-03-02T08:54:54;6.55;;;3.65;;
45039;SDS011;30778;53.574;7.770;2024-03-02T08:57:20;6.05;;;4.05;;
45039;SDS011;30778;53.574;7.770;2024-03-02T08:59:45;7.60;;;4.22;;
45039;SDS011;30778;53.574;7.770;2024-03-02T09:02:11;5.97;;;3.42;;
45039;SDS011;30778;53.574;7.770;2024-03-02T09:04:37;8.07;;;4.40;;
45039;SDS011;30778;53.574;7.770;2024-03-02T09:07:02;5.72;;;3.42;;
45039;SDS011;30778;53.574;7.770;2024-03-02T09:09:28;7.45;;;3.65;;
45039;SDS011;30778;53.574;7.770;2024-03-02T09:11:54;6.38;;;4.05;;
45039;SDS011;30778;53.574;7.770;2024-03-02T09:14:23;6.57;;;3.30;;
45039;SDS011;30778;53.574;7.770;2024-03-02T09:16:48;6.22;;;3.67;;
45039;SDS011;30778;53.574;7.770;2024-03-02T09:19:14;5.82;;;3.38;;
45039;SDS011;30778;53.574;7.770;2024-03-02T09:21:41;6.72;;;3.08;;
45039;SDS011;30778;53.574;7.770;2024-03-02T09:24:07;6.40;;;3.67;;
45039;SDS011;30778;53.574;7.770;2024-03-02T09:26:33;5.50;;;3.50;;
45039;SDS011;30778;53.574;7.770;2024-03-02T09:28:59;8.43;;;3.83;;
45039;SDS011;30778;53.574;7.770;2024-03-02T09:31:25;7.53;;;3.92;;
45039;SDS011;30778;53.574;7.770;2024-03-02T09:33:50;5.40;;;3.53;;
45039;SDS011;30778;53.574;7.770;2024-03-02T09:36:19;4.57;;;3.53;;
45039;SDS011;30778;53.574;7.770;2024-03-02T09:38:45;4.28;;;3.20;;
45039;SDS011;30778;53.574;7.770;2024-03-02T09:41:11;4.65;;;3.10;;
45039;SDS011;30778;53.574;7.770;2024-03-02T09:43:38;5.20;;;3.42;;
45039;SDS011;30778;53.574;7.770;2024-03-02T09:46:05;6.85;;;3.63;;
45039;SDS011;30778;53.574;7.770;2024-03-02T09:48:31;6.38;;;3.22;;
45039;SDS011;30778;53.574;7.770;2024-03-02T09:50:57;3.15;;;2.35;;
45039;SDS011;30778;53.574;7.770;2024-03-02T09:53:22;4.68;;;2.28;;
45039;SDS011;30778;53.574;7.770;2024-03-02T09:55:52;3.58;;;2.10;;
45039;SDS011;30778;53.574;7.770;2024-03-02T09:58:17;4.13;;;2.55;;
45039;SDS011;30778;53.574;7.770;2024-03-02T10:00:43;13.77;;;3.72;;
45039;SDS011;30778;53.574;7.770;2024-03-02T10:03:11;5.25;;;2.65;;
45039;SDS011;30778;53.574;7.770;2024-03-02T10:05:38;5.07;;;2.70;;
45039;SDS011;30778;53.574;7.770;2024-03-02T10:08:03;7.38;;;2.95;;
45039;SDS011;30778;53.574;7.770;2024-03-02T10:13:12;3.80;;;2.35;;
45039;SDS011;30778;53.574;7.770;2024-03-02T10:15:39;4.38;;;2.67;;
45039;SDS011;30778;53.574;7.770;2024-03-02T10:18:09;4.70;;;2.50;;
45039;SDS011;30778;53.574;7.770;2024-03-02T10:20:38;4.60;;;2.33;;
45039;SDS011;30778;53.574;7.770;2024-03-02T10:23:09;3.45;;;2.50;;
45039;SDS011;30778;53.574;7.770;2024-03-02T10:25:36;2.72;;;1.77;;
45039;SDS011;30778;53.574;7.770;2024-03-02T10:28:06;6.70;;;2.38;;
45039;SDS011;30778;53.574;7.770;2024-03-02T10:30:33;5.47;;;2.55;;
45039;SDS011;30778;53.574;7.770;2024-03-02T10:33:03;4.18;;;2.72;;
45039;SDS011;30778;53.574;7.770;2024-03-02T10:35:31;6.13;;;2.33;;
45039;SDS011;30778;53.574;7.770;2024-03-02T10:38:00;5.05;;;3.13;;
45039;SDS011;30778;53.574;7.770;2024-03-02T10:40:30;2.63;;;2.38;;
45039;SDS011;30778;53.574;7.770;2024-03-02T10:42:56;6.65;;;3.25;;
45039;SDS011;30778;53.574;7.770;2024-03-02T10:45:23;7.55;;;3.90;;
45039;SDS011;30778;53.574;7.770;2024-03-02T10:47:49;4.38;;;2.00;;
45039;SDS011;30778;53.574;7.770;2024-03-02T10:50:16;3.63;;;2.03;;
45039;SDS011;30778;53.574;7.770;2024-03-02T10:52:42;2.80;;;2.25;;
45039;SDS011;30778;53.574;7.770;2024-03-02T10:55:14;4.60;;;2.33;;
45039;SDS011;30778;53.574;7.770;2024-03-02T11:00:20;4.13;;;2.47;;
45039;SDS011;30778;53.574;7.770;2024-03-02T11:02:53;3.28;;;2.13;;
45039;SDS011;30778;53.574;7.770;2024-03-02T11:05:28;3.40;;;2.30;;
45039;SDS011;30778;53.574;7.770;2024-03-02T11:08:00;3.92;;;2.72;;
45039;SDS011;30778;53.574;7.770;2024-03-02T11:10:33;4.28;;;2.40;;
45039;SDS011;30778;53.574;7.770;2024-03-02T11:13:02;4.88;;;2.78;;
45039;SDS011;30778;53.574;7.770;2024-03-02T11:15:34;3.40;;;2.40;;
45039;SDS011;30778;53.574;7.770;2024-03-02T11:18:01;3.60;;;2.42;;
45039;SDS011;30778;53.574;7.770;2024-03-02T11:20:33;4.07;;;2.45;;
45039;SDS011;30778;53.574;7.770;2024-03-02T11:23:05;4.97;;;2.80;;
45039;SDS011;30778;53.574;7.770;2024-03-02T11:25:32;9.80;;;2.97;;
45039;SDS011;30778;53.574;7.770;2024-03-02T11:28:04;3.90;;;1.98;;
45039;SDS011;30778;53.574;7.770;2024-03-02T11:32:56;2.05;;;1.48;;
45039;SDS011;30778;53.574;7.770;2024-03-02T11:35:24;3.55;;;1.80;;
45039;SDS011;30778;53.574;7.770;2024-03-02T11:37:51;6.38;;;2.15;;
45039;SDS011;30778;53.574;7.770;2024-03-02T11:40:27;3.83;;;2.30;;
45039;SDS011;30778;53.574;7.770;2024-03-02T11:42:53;4.97;;;2.10;;
45039;SDS011;30778;53.574;7.770;2024-03-02T11:45:22;4.15;;;2.90;;
45039;SDS011;30778;53.574;7.770;2024-03-02T11:47:56;3.25;;;1.80;;
45039;SDS011;30778;53.574;7.770;2024-03-02T11:50:29;3.22;;;1.48;;
45039;SDS011;30778;53.574;7.770;2024-03-02T11:52:56;3.55;;;1.92;;
45039;SDS011;30778;53.574;7.770;2024-03-02T11:55:24;3.70;;;1.63;;
45039;SDS011;30778;53.574;7.770;2024-03-02T11:57:52;2.70;;;1.83;;
45039;SDS011;30778;53.574;7.770;2024-03-02T12:00:18;7.85;;;1.73;;
45039;SDS011;30778;53.574;7.770;2024-03-02T12:02:45;3.15;;;1.42;;
45039;SDS011;30778;53.574;7.770;2024-03-02T12:05:14;5.53;;;1.58;;
45039;SDS011;30778;53.574;7.770;2024-03-02T12:07:42;2.42;;;1.20;;
45039;SDS011;30778;53.574;7.770;2024-03-02T12:10:08;1.92;;;1.10;;
45039;SDS011;30778;53.574;7.770;2024-03-02T12:12:34;2.15;;;0.95;;
45039;SDS011;30778;53.574;7.770;2024-03-02T12:15:00;3.38;;;1.60;;
45039;SDS011;30778;53.574;7.770;2024-03-02T12:17:26;2.92;;;1.65;;
45039;SDS011;30778;53.574;7.770;2024-03-02T12:19:52;2.78;;;1.83;;
45039;SDS011;30778;53.574;7.770;2024-03-02T12:22:18;3.42;;;1.27;;
45039;SDS011;30778;53.574;7.770;2024-03-02T12:24:46;2.05;;;1.10;;
45039;SDS011;30778;53.574;7.770;2024-03-02T12:27:12;4.55;;;1.45;;
45039;SDS011;30778;53.574;7.770;2024-03-02T12:29:40;2.33;;;1.05;;
45039;SDS011;30778;53.574;7.770;2024-03-02T12:32:06;2.20;;;1.63;;
45039;SDS011;30778;53.574;7.770;2024-03-02T12:34:32;2.58;;;1.63;;
45039;SDS011;30778;53.574;7.770;2024-03-02T12:37:00;2.95;;;1.60;;
45039;SDS011;30778;53.574;7.770;2024-03-02T12:39:25;2.85;;;1.67;;
45039;SDS011;30778;53.574;7.770;2024-03-02T12:41:52;1.92;;;1.50;;
45039;SDS011;30778;53.574;7.770;2024-03-02T12:44:19;3.38;;;1.88;;
45039;SDS011;30778;53.574;7.770;2024-03-02T12:46:45;3.35;;;1.17;;
45039;SDS011;30778;53.574;7.770;2024-03-02T12:49:12;4.15;;;1.40;;
45039;SDS011;30778;53.574;7.770;2024-03-02T12:51:39;4.38;;;1.58;;
45039;SDS011;30778;53.574;7.770;2024-03-02T12:54:09;3.58;;;1.40;;
45039;SDS011;30778;53.574;7.770;2024-03-02T12:56:36;2.15;;;1.17;;
45039;SDS011;30778;53.574;7.770;2024-03-02T12:59:03;2.85;;;1.70;;
45039;SDS011;30778;53.574;7.770;2024-03-02T13:01:29;2.67;;;1.83;;
45039;SDS011;30778;53.574;7.770;2024-03-02T13:03:55;3.50;;;1.35;;
45039;SDS011;30778;53.574;7.770;2024-03-02T13:06:24;2.65;;;1.98;;
45039;SDS011;30778;53.574;7.770;2024-03-02T13:08:53;5.70;;;1.77;;
45039;SDS011;30778;53.574;7.770;2024-03-02T13:11:19;3.47;;;1.40;;
45039;SDS011;30778;53.574;7.770;2024-03-02T13:13:49;2.90;;;1.60;;
45039;SDS011;30778;53.574;7.770;2024-03-02T13:16:15;2.67;;;1.25;;
45039;SDS011;30778;53.574;7.770;2024-03-02T13:18:42;3.53;;;1.73;;
45039;SDS011;30778;53.574;7.770;2024-03-02T13:21:09;3.97;;;1.58;;
45039;SDS011;30778;53.574;7.770;2024-03-02T13:23:37;5.22;;;2.10;;
45039;SDS011;30778;53.574;7.770;2024-03-02T13:26:03;3.58;;;1.85;;
45039;SDS011;30778;53.574;7.770;2024-03-02T13:28:29;3.40;;;1.88;;
45039;SDS011;30778;53.574;7.770;2024-03-02T13:30:55;4.28;;;2.13;;
45039;SDS011;30778;53.574;7.770;2024-03-02T13:33:21;3.75;;;2.25;;
45039;SDS011;30778;53.574;7.770;2024-03-02T13:35:50;4.47;;;2.22;;
45039;SDS011;30778;53.574;7.770;2024-03-02T13:38:19;2.92;;;1.55;;
45039;SDS011;30778;53.574;7.770;2024-03-02T13:40:45;3.78;;;1.92;;
45039;SDS011;30778;53.574;7.770;2024-03-02T13:43:12;2.95;;;1.23;;
45039;SDS011;30778;53.574;7.770;2024-03-02T13:45:39;3.38;;;1.42;;
45039;SDS011;30778;53.574;7.770;2024-03-02T13:48:05;4.88;;;1.50;;
45039;SDS011;30778;53.574;7.770;2024-03-02T13:50:31;3.65;;;1.58;;
45039;SDS011;30778;53.574;7.770;2024-03-02T13:52:57;3.28;;;1.70;;
45039;SDS011;30778;53.574;7.770;2024-03-02T13:55:23;2.15;;;1.20;;
45039;SDS011;30778;53.574;7.770;2024-03-02T13:57:48;3.55;;;1.65;;
45039;SDS011;30778;53.574;7.770;2024-03-02T14:00:15;4.03;;;1.52;;
45039;SDS011;30778;53.574;7.770;2024-03-02T14:02:48;2.90;;;2.03;;
45039;SDS011;30778;53.574;7.770;2024-03-02T14:05:19;4.40;;;2.17;;
45039;SDS011;30778;53.574;7.770;2024-03-02T14:07:44;3.75;;;1.92;;
45039;SDS011;30778;53.574;7.770;2024-03-02T14:10:10;4.32;;;2.20;;
45039;SDS011;30778;53.574;7.770;2024-03-02T14:12:41;5.32;;;2.15;;
45039;SDS011;30778;53.574;7.770;2024-03-02T14:15:06;2.55;;;1.70;;
45039;SDS011;30778;53.574;7.770;2024-03-02T14:17:32;2.92;;;2.25;;
45039;SDS011;30778;53.574;7.770;2024-03-02T14:19:58;4.50;;;2.22;;
45039;SDS011;30778;53.574;7.770;2024-03-02T14:22:26;6.70;;;2.22;;
45039;SDS011;30778;53.574;7.770;2024-03-02T14:24:52;2.60;;;1.88;;
45039;SDS011;30778;53.574;7.770;2024-03-02T14:27:18;5.55;;;2.33;;
45039;SDS011;30778;53.574;7.770;2024-03-02T14:29:47;4.07;;;2.38;;
45039;SDS011;30778;53.574;7.770;2024-03-02T14:32:12;5.43;;;2.67;;
45039;SDS011;30778;53.574;7.770;2024-03-02T14:34:38;6.32;;;2.80;;
45039;SDS011;30778;53.574;7.770;2024-03-02T14:37:04;4.60;;;2.75;;
45039;SDS011;30778;53.574;7.770;2024-03-02T14:39:30;3.20;;;2.90;;
45039;SDS011;30778;53.574;7.770;2024-03-02T14:42:00;3.55;;;1.85;;
45039;SDS011;30778;53.574;7.770;2024-03-02T14:44:26;4.47;;;3.00;;
45039;SDS011;30778;53.574;7.770;2024-03-02T14:46:52;5.13;;;3.13;;
45039;SDS011;30778;53.574;7.770;2024-03-02T14:49:18;7.25;;;2.42;;